createdAt,value
2019-01-18T00:01:53.357Z,60.74
2019-01-18T00:04:23.421Z,62.95
2019-01-18T00:06:53.403Z,61.89
2019-01-18T00:09:23.372Z,61.42
2019-01-18T00:11:53.233Z,61.99
2019-01-18T00:14:24.267Z,62.46
2019-01-18T00:16:55.272Z,61.14
2019-01-18T00:19:25.240Z,61.87
2019-01-18T00:21:55.167Z,61.21
2019-01-18T00:24:25.074Z,61.00
2019-01-18T00:26:57.822Z,61.59
2019-01-18T00:29:29.733Z,61.68
2019-01-18T00:32:02.216Z,60.87
2019-01-18T00:34:33.331Z,60.89
2019-01-18T00:37:03.359Z,60.04
2019-01-18T00:39:33.350Z,59.03
2019-01-18T00:42:03.330Z,60.90
2019-01-18T00:44:34.244Z,59.08
2019-01-18T00:47:04.212Z,60.16
2019-01-18T00:49:34.184Z,60.45
2019-01-18T00:52:04.301Z,60.22
2019-01-18T00:54:34.247Z,58.86
2019-01-18T00:57:04.429Z,58.86
2019-01-18T00:59:36.371Z,59.52
2019-01-18T01:02:06.117Z,61.45
2019-01-18T01:04:36.155Z,61.25
2019-01-18T01:07:06.142Z,64.64
2019-01-18T01:09:36.122Z,72.74
2019-01-18T01:12:07.591Z,72.94
2019-01-18T01:14:37.477Z,75.18
2019-01-18T01:17:07.673Z,80.12
2019-01-18T01:19:37.557Z,85.26
2019-01-18T01:22:07.502Z,86.27
2019-01-18T01:24:37.418Z,85.63
2019-01-18T01:27:07.365Z,84.58
2019-01-18T01:29:43.045Z,84.65
2019-01-18T01:32:09.236Z,82.75
2019-01-18T01:34:39.221Z,81.95
2019-01-18T01:37:09.411Z,81.85
2019-01-18T01:39:39.419Z,82.14
2019-01-18T01:42:09.355Z,79.45
2019-01-18T01:44:39.390Z,79.91
2019-01-18T01:47:09.424Z,79.23
2019-01-18T01:49:39.431Z,79.09
2019-01-18T01:52:09.418Z,77.72
2019-01-18T01:54:39.623Z,77.96
2019-01-18T01:57:09.532Z,77.90
2019-01-18T01:59:39.494Z,76.87
2019-01-18T02:02:09.475Z,75.45
2019-01-18T02:04:41.923Z,75.75
2019-01-18T02:07:11.775Z,74.48
2019-01-18T02:09:41.782Z,74.42
2019-01-18T02:12:11.804Z,76.24
2019-01-18T02:14:41.839Z,75.59
2019-01-18T02:17:11.837Z,76.57
2019-01-18T02:19:41.821Z,76.10
2019-01-18T02:22:11.867Z,74.37
2019-01-18T02:24:41.840Z,76.11
2019-01-18T02:27:11.945Z,75.81
2019-01-18T02:29:41.866Z,75.43
2019-01-18T02:32:12.881Z,75.73
2019-01-18T02:34:42.788Z,75.34
2019-01-18T02:37:12.659Z,74.49
2019-01-18T02:39:42.733Z,75.12
2019-01-18T02:42:12.705Z,75.98
2019-01-18T02:44:42.622Z,76.32
2019-01-18T02:47:12.566Z,75.94
2019-01-18T02:49:42.495Z,76.26
2019-01-18T02:52:12.457Z,76.40
2019-01-18T02:54:42.546Z,76.55
2019-01-18T02:57:12.444Z,76.73
2019-01-18T02:59:42.401Z,76.15
2019-01-18T03:02:12.300Z,74.18
2019-01-18T03:04:42.316Z,75.56
2019-01-18T03:07:13.702Z,75.78
2019-01-18T03:09:43.791Z,75.36
2019-01-18T03:12:13.768Z,75.43
2019-01-18T03:14:43.715Z,74.99
2019-01-18T03:17:13.673Z,75.19
2019-01-18T03:19:43.717Z,75.88
2019-01-18T03:22:13.680Z,75.42
2019-01-18T03:24:43.950Z,75.53
2019-01-18T03:27:13.967Z,75.07
2019-01-18T03:29:43.855Z,75.58
2019-01-18T03:32:14.074Z,75.20
2019-01-18T03:34:44.056Z,74.73
2019-01-18T03:37:14.017Z,75.39
2019-01-18T03:39:43.917Z,75.70
2019-01-18T03:42:14.839Z,74.42
2019-01-18T03:44:44.815Z,74.75
2019-01-18T03:47:14.789Z,75.45
2019-01-18T03:49:44.812Z,75.29
2019-01-18T03:52:14.679Z,75.19
2019-01-18T03:54:44.709Z,75.01
2019-01-18T03:57:14.683Z,71.93
2019-01-18T03:59:44.728Z,72.19
2019-01-18T04:02:14.697Z,71.82
2019-01-18T04:04:44.752Z,70.51
2019-01-18T04:07:14.789Z,70.82
2019-01-18T04:09:44.967Z,71.21
2019-01-18T04:12:14.915Z,71.20
2019-01-18T04:14:44.970Z,71.12
2019-01-18T04:17:14.926Z,69.41
2019-01-18T04:19:44.766Z,68.25
2019-01-18T04:22:14.713Z,67.05
2019-01-18T04:24:44.706Z,65.93
2019-01-18T04:27:14.705Z,66.31
2019-01-18T04:29:44.616Z,66.15
2019-01-18T04:32:14.654Z,69.37
2019-01-18T04:34:44.621Z,70.69
2019-01-18T04:37:14.595Z,71.26
2019-01-18T04:39:44.511Z,70.32
2019-01-18T04:42:14.451Z,70.21
2019-01-18T04:44:44.388Z,70.79
2019-01-18T04:47:15.451Z,70.04
2019-01-18T04:49:45.403Z,70.07
2019-01-18T04:52:15.297Z,70.62
2019-01-18T04:54:45.258Z,69.25
2019-01-18T04:57:15.141Z,69.72
2019-01-18T04:59:45.128Z,70.29
2019-01-18T05:02:15.104Z,69.62
2019-01-18T05:04:45.060Z,70.15
2019-01-18T05:07:15.077Z,69.25
2019-01-18T05:09:45.148Z,69.55
2019-01-18T05:12:16.258Z,68.54
2019-01-18T05:14:46.269Z,67.10
2019-01-18T05:17:16.171Z,68.41
2019-01-18T05:19:46.038Z,68.10
2019-01-18T05:22:16.021Z,68.22
2019-01-18T05:24:49.466Z,67.97
2019-01-18T05:27:17.549Z,68.18
2019-01-18T05:29:47.512Z,68.69
2019-01-18T05:32:17.528Z,68.48
2019-01-18T05:34:47.389Z,67.80
2019-01-18T05:37:17.346Z,68.02
2019-01-18T05:39:48.171Z,68.05
2019-01-18T05:42:18.122Z,67.75
2019-01-18T05:44:47.974Z,67.60
2019-01-18T05:47:17.982Z,67.58
2019-01-18T05:49:47.996Z,67.64
2019-01-18T05:52:18.029Z,67.41
2019-01-18T05:54:47.953Z,66.91
2019-01-18T05:57:17.753Z,66.99
2019-01-18T05:59:47.692Z,66.83
2019-01-18T06:02:18.655Z,66.77
2019-01-18T06:04:49.756Z,67.08
2019-01-18T06:07:19.654Z,67.07
2019-01-18T06:09:49.708Z,67.23
2019-01-18T06:12:19.652Z,67.04
2019-01-18T06:14:49.577Z,67.82
2019-01-18T06:17:19.528Z,67.78
2019-01-18T06:19:49.515Z,68.67
2019-01-18T06:22:19.572Z,69.61
2019-01-18T06:24:49.449Z,70.83
2019-01-18T06:27:19.404Z,71.00
2019-01-18T06:29:49.388Z,70.92
2019-01-18T06:32:19.418Z,69.93
2019-01-18T06:34:49.348Z,70.15
2019-01-18T06:37:19.301Z,69.98
2019-01-18T06:39:49.280Z,69.75
2019-01-18T06:42:19.189Z,69.56
2019-01-18T06:44:49.077Z,67.96
2019-01-18T06:47:20.775Z,68.38
2019-01-18T06:49:50.777Z,68.13
2019-01-18T06:52:23.923Z,67.89
2019-01-18T06:54:54.000Z,67.16
2019-01-18T06:57:24.039Z,66.75
2019-01-18T06:59:53.899Z,65.71
2019-01-18T07:02:23.916Z,66.00
2019-01-18T07:04:53.801Z,65.50
2019-01-18T07:07:23.854Z,65.53
2019-01-18T07:09:53.826Z,65.10
2019-01-18T07:12:26.845Z,65.28
2019-01-18T07:14:56.703Z,65.41
2019-01-18T07:17:26.739Z,65.33
2019-01-18T07:19:56.716Z,65.26
2019-01-18T07:22:26.768Z,63.26
2019-01-18T07:24:56.695Z,63.97
2019-01-18T07:27:26.529Z,64.03
2019-01-18T07:29:56.545Z,64.11
2019-01-18T07:32:26.594Z,63.93
2019-01-18T07:34:56.529Z,64.19
2019-01-18T07:37:26.445Z,64.49
2019-01-18T07:39:56.389Z,61.92
2019-01-18T07:42:26.214Z,63.79
2019-01-18T07:44:56.209Z,64.04
2019-01-18T07:47:26.168Z,65.04
2019-01-18T07:49:56.148Z,64.69
2019-01-18T07:52:26.215Z,64.95
2019-01-18T07:54:57.160Z,64.73
2019-01-18T07:57:27.142Z,64.85
2019-01-18T07:59:57.091Z,65.28
2019-01-18T08:02:27.112Z,65.03
2019-01-18T08:04:57.067Z,65.18
2019-01-18T08:07:27.201Z,64.88
2019-01-18T08:09:59.134Z,65.06
2019-01-18T08:12:29.114Z,64.76
2019-01-18T08:14:59.269Z,64.64
2019-01-18T08:17:29.196Z,64.97
2019-01-18T08:20:00.211Z,64.15
2019-01-18T08:22:30.183Z,63.91
2019-01-18T08:25:00.216Z,65.00
2019-01-18T08:27:30.200Z,63.66
2019-01-18T08:30:01.569Z,64.97
2019-01-18T08:32:31.530Z,64.07
2019-01-18T08:35:01.526Z,64.47
2019-01-18T08:37:31.371Z,63.57
2019-01-18T08:40:01.232Z,64.62
2019-01-18T08:42:31.287Z,64.63
2019-01-18T08:45:01.186Z,60.37
2019-01-18T08:47:31.224Z,62.79
2019-01-18T08:50:01.142Z,60.79
2019-01-18T08:52:31.138Z,60.13
2019-01-18T08:55:01.988Z,56.09
2019-01-18T08:57:31.935Z,55.92
2019-01-18T09:00:01.924Z,56.04
2019-01-18T09:02:31.871Z,54.91
2019-01-18T09:05:01.848Z,54.78
2019-01-18T09:07:31.665Z,54.23
2019-01-18T09:10:01.686Z,55.32
2019-01-18T09:12:31.738Z,51.59
2019-01-18T09:15:01.652Z,53.81
2019-01-18T09:17:31.633Z,55.59
2019-01-18T09:20:01.526Z,53.94
2019-01-18T09:22:31.503Z,55.04
2019-01-18T09:25:01.537Z,57.12
2019-01-18T09:27:31.494Z,55.37
2019-01-18T09:30:01.441Z,57.25
2019-01-18T09:32:31.486Z,57.94
2019-01-18T09:35:02.484Z,58.05
2019-01-18T09:37:32.385Z,57.00
2019-01-18T09:40:02.394Z,54.81
2019-01-18T09:42:32.324Z,53.25
2019-01-18T09:45:02.237Z,53.10
2019-01-18T09:47:32.093Z,54.77
2019-01-18T09:50:01.990Z,55.32
2019-01-18T09:52:31.931Z,55.83
2019-01-18T09:55:01.750Z,56.00
2019-01-18T09:57:31.796Z,55.12
2019-01-18T10:00:01.771Z,54.15
2019-01-18T10:02:31.748Z,54.31
2019-01-18T10:05:01.635Z,54.71
2019-01-18T10:07:31.558Z,54.66
2019-01-18T10:10:01.649Z,53.56
2019-01-18T10:12:32.615Z,50.79
2019-01-18T10:15:02.564Z,53.21
2019-01-18T10:17:32.579Z,52.79
2019-01-18T10:20:02.535Z,51.77
2019-01-18T10:22:32.504Z,53.58
2019-01-18T10:25:02.622Z,55.72
2019-01-18T10:27:32.523Z,55.02
2019-01-18T10:30:03.678Z,54.97
2019-01-18T10:32:33.579Z,54.30
2019-01-18T10:35:03.849Z,52.06
2019-01-18T10:37:33.891Z,55.72
2019-01-18T10:40:04.759Z,55.98
2019-01-18T10:42:34.802Z,56.31
2019-01-18T10:45:05.720Z,56.44
2019-01-18T10:47:35.817Z,55.92
2019-01-18T10:50:07.595Z,53.33
2019-01-18T10:52:37.556Z,53.47
2019-01-18T10:55:08.352Z,55.40
2019-01-18T10:57:38.398Z,54.82
2019-01-18T11:00:12.063Z,55.22
2019-01-18T11:02:43.090Z,52.47
2019-01-18T11:05:13.511Z,51.35
2019-01-18T11:07:43.630Z,51.06
2019-01-18T11:10:13.719Z,52.40
2019-01-18T11:12:43.689Z,53.20
2019-01-18T11:15:15.357Z,54.27
2019-01-18T11:17:45.341Z,54.03
2019-01-18T11:20:30.463Z,52.37
2019-01-18T11:23:00.711Z,54.41
2019-01-18T11:25:31.875Z,53.14
2019-01-18T11:28:02.072Z,52.97
2019-01-18T11:30:32.185Z,52.36
2019-01-18T11:33:02.200Z,55.25
2019-01-18T11:35:32.101Z,56.57
2019-01-18T11:38:02.021Z,56.97
2019-01-18T11:40:32.090Z,56.61
2019-01-18T11:43:02.119Z,54.95
2019-01-18T11:45:32.099Z,54.52
2019-01-18T11:48:02.123Z,55.04
2019-01-18T11:50:32.030Z,53.52
2019-01-18T11:53:01.961Z,53.97
2019-01-18T11:55:31.952Z,54.95
2019-01-18T11:58:01.937Z,54.80
2019-01-18T12:00:37.807Z,55.48
2019-01-18T12:03:03.768Z,54.75
2019-01-18T12:05:33.763Z,55.15
2019-01-18T12:08:04.040Z,56.90
2019-01-18T12:10:34.120Z,57.76
2019-01-18T12:13:04.430Z,56.80
2019-01-18T12:15:34.496Z,58.12
2019-01-18T12:18:04.774Z,61.26
2019-01-18T12:20:36.388Z,58.95
2019-01-18T12:23:07.202Z,57.38
2019-01-18T12:25:37.243Z,56.95
2019-01-18T12:28:07.643Z,57.11
2019-01-18T12:30:38.069Z,56.90
2019-01-18T12:33:09.025Z,58.46
2019-01-18T12:35:39.049Z,60.23
2019-01-18T12:38:09.081Z,60.77
2019-01-18T12:40:39.079Z,58.75
2019-01-18T12:43:09.096Z,58.50
2019-01-18T12:45:39.019Z,58.07
2019-01-18T12:48:09.061Z,58.11
2019-01-18T12:50:40.716Z,58.21
2019-01-18T12:53:10.738Z,58.42
2019-01-18T12:55:40.730Z,57.42
2019-01-18T12:58:10.740Z,57.34
2019-01-18T13:00:40.810Z,57.55
2019-01-18T13:03:10.985Z,56.60
2019-01-18T13:05:44.036Z,56.41
2019-01-18T13:08:15.207Z,56.13
2019-01-18T13:10:45.283Z,55.77
2019-01-18T13:13:15.267Z,55.43
2019-01-18T13:16:24.859Z,54.29
2019-01-18T13:18:57.852Z,54.24
2019-01-18T13:21:27.870Z,53.76
2019-01-18T13:23:57.768Z,53.65
2019-01-18T13:26:27.753Z,53.85
2019-01-18T13:28:57.818Z,53.15
2019-01-18T13:31:27.880Z,53.43
2019-01-18T13:33:58.024Z,52.32
2019-01-18T13:36:28.019Z,51.69
2019-01-18T13:38:57.943Z,51.68
2019-01-18T13:44:03.861Z,52.24
2019-01-18T13:46:33.927Z,51.11
2019-01-18T13:49:03.978Z,50.60
2019-01-18T13:51:33.904Z,49.44
2019-01-18T13:54:04.051Z,50.01
2019-01-18T13:56:34.079Z,50.71
2019-01-18T13:59:05.156Z,48.82
2019-01-18T14:04:24.205Z,47.94
2019-01-18T14:06:54.197Z,47.66
2019-01-18T14:09:24.251Z,48.12
2019-01-18T14:11:55.847Z,49.50
2019-01-18T14:14:25.884Z,50.68
2019-01-18T14:16:55.725Z,51.93
2019-01-18T14:19:25.663Z,51.71
2019-01-18T14:21:55.678Z,51.30
2019-01-18T14:24:25.676Z,51.59
2019-01-18T14:26:56.632Z,54.34
2019-01-18T14:29:26.599Z,54.51
2019-01-18T14:31:56.723Z,54.94
2019-01-18T14:34:26.620Z,55.21
2019-01-18T14:36:56.543Z,55.48
2019-01-18T14:39:26.421Z,55.93
2019-01-18T14:41:56.323Z,56.50
2019-01-18T14:44:27.372Z,57.33
2019-01-18T14:46:57.304Z,58.16
2019-01-18T14:49:27.324Z,58.08
2019-01-18T14:51:57.297Z,58.29
2019-01-18T14:54:27.277Z,59.34
2019-01-18T14:56:57.275Z,58.61
2019-01-18T14:59:27.293Z,58.85
2019-01-18T15:01:57.200Z,58.88
2019-01-18T15:04:27.075Z,59.21
2019-01-18T15:06:57.061Z,59.93
2019-01-18T15:09:27.101Z,59.19
2019-01-18T15:11:57.077Z,59.36
2019-01-18T15:14:26.978Z,60.06
2019-01-18T15:16:56.865Z,60.33
2019-01-18T15:19:27.135Z,59.71
2019-01-18T15:21:57.089Z,61.29
2019-01-18T15:24:26.998Z,63.14
2019-01-18T15:26:56.926Z,62.77
2019-01-18T15:29:26.840Z,63.12
2019-01-18T15:31:56.804Z,64.17
2019-01-18T15:34:26.793Z,63.97
2019-01-18T15:36:56.892Z,63.75
2019-01-18T15:39:26.939Z,63.96
2019-01-18T15:41:56.863Z,64.12
2019-01-18T15:44:26.804Z,64.08
2019-01-18T15:46:56.813Z,64.38
2019-01-18T15:49:26.721Z,65.32
2019-01-18T15:51:56.684Z,65.42
2019-01-18T15:54:26.571Z,66.04
2019-01-18T15:56:56.482Z,66.42
2019-01-18T15:59:26.443Z,67.02
2019-01-18T16:01:56.425Z,67.86
2019-01-18T16:04:26.303Z,72.75
2019-01-18T16:06:56.154Z,60.14
2019-01-18T16:09:26.208Z,54.04
2019-01-18T16:11:56.270Z,51.71
2019-01-18T16:14:26.176Z,55.13
2019-01-18T16:17:04.054Z,59.08
2019-01-18T16:19:33.873Z,61.02
2019-01-18T16:22:03.854Z,63.57
2019-01-18T16:24:33.858Z,64.94
2019-01-18T16:27:03.884Z,65.22
2019-01-18T16:29:33.844Z,65.04
2019-01-18T16:32:03.937Z,66.25
2019-01-18T16:34:33.929Z,66.36
2019-01-18T16:37:05.065Z,66.92
2019-01-18T16:39:35.176Z,68.21
2019-01-18T16:42:05.166Z,68.87
2019-01-18T16:44:35.361Z,67.77
2019-01-18T16:47:05.391Z,67.12
2019-01-18T16:49:35.255Z,67.63
2019-01-18T16:52:05.334Z,68.81
2019-01-18T16:54:35.307Z,68.48
2019-01-18T16:57:05.311Z,68.60
2019-01-18T16:59:35.335Z,68.99
2019-01-18T17:02:05.488Z,69.43
2019-01-18T17:04:35.458Z,69.43
2019-01-18T17:07:05.442Z,69.52
2019-01-18T17:09:35.431Z,69.35
2019-01-18T17:12:05.475Z,68.78
2019-01-18T17:14:35.381Z,69.10
2019-01-18T17:17:05.408Z,69.75
2019-01-18T17:19:35.382Z,70.01
2019-01-18T17:22:05.551Z,70.62
2019-01-18T17:24:35.574Z,70.66
2019-01-18T17:27:05.592Z,70.54
2019-01-18T17:29:35.545Z,70.46
2019-01-18T17:32:05.566Z,70.79
2019-01-18T17:34:35.482Z,70.77
2019-01-18T17:37:13.206Z,70.80
2019-01-18T17:40:08.040Z,71.14
2019-01-18T17:42:51.439Z,71.38
2019-01-18T17:45:59.618Z,71.21
2019-01-18T17:48:54.116Z,71.22
2019-01-18T17:52:23.202Z,70.94
2019-01-18T17:55:04.383Z,70.71
2019-01-18T17:58:18.577Z,70.63
2019-01-18T18:01:35.474Z,70.81
2019-01-18T18:04:45.283Z,70.74
2019-01-18T18:07:55.071Z,71.06
2019-01-18T18:11:17.265Z,71.00
2019-01-18T18:14:34.077Z,70.83
2019-01-18T18:17:30.158Z,71.12
2019-01-18T18:20:30.191Z,71.16
2019-01-18T18:23:48.238Z,71.33
2019-01-18T18:26:47.162Z,70.95
2019-01-18T18:29:47.238Z,71.19
2019-01-18T18:32:40.464Z,71.17
2019-01-18T18:35:38.664Z,70.53
2019-01-18T18:38:35.057Z,70.84
2019-01-18T18:41:40.596Z,70.90
2019-01-18T18:45:03.836Z,71.40
2019-01-18T18:48:18.855Z,71.45
2019-01-18T18:51:13.698Z,71.57
2019-01-18T18:54:26.474Z,71.45
2019-01-18T18:57:35.105Z,72.12
2019-01-18T19:00:49.015Z,72.98
2019-01-18T19:03:57.827Z,72.34
2019-01-18T19:07:15.452Z,71.91
2019-01-18T19:10:23.699Z,71.98
2019-01-18T19:13:17.409Z,72.20
2019-01-18T19:16:42.915Z,72.04
2019-01-18T19:19:51.182Z,72.01
2019-01-18T19:22:36.677Z,72.00
2019-01-18T19:25:30.115Z,72.59
2019-01-18T19:28:11.573Z,73.01
2019-01-18T19:31:05.353Z,72.93
2019-01-18T19:33:48.544Z,72.45
2019-01-18T19:36:46.867Z,72.70
2019-01-18T19:40:00.772Z,72.55
2019-01-18T19:43:16.289Z,72.13
2019-01-18T19:46:06.491Z,72.29
2019-01-18T19:49:37.707Z,72.69
2019-01-18T19:52:46.450Z,72.30
2019-01-18T19:55:55.006Z,72.91
2019-01-18T19:58:48.429Z,73.27
2019-01-18T20:01:56.675Z,73.63
2019-01-18T20:05:01.410Z,73.47
2019-01-18T20:08:07.533Z,73.73
2019-01-18T20:11:27.015Z,73.20
2019-01-18T20:14:21.207Z,72.97
2019-01-18T20:17:02.224Z,73.15
2019-01-18T20:20:34.544Z,73.25
2019-01-18T20:23:23.313Z,73.17
2019-01-18T20:26:37.099Z,73.67
2019-01-18T20:29:51.098Z,73.80
2019-01-18T20:32:34.991Z,73.99
2019-01-18T20:35:35.570Z,73.55
2019-01-18T20:38:42.867Z,73.36
2019-01-18T20:41:40.357Z,74.11
2019-01-18T20:44:25.683Z,73.95
2019-01-18T20:47:18.450Z,73.85
2019-01-18T20:50:19.857Z,74.13
2019-01-18T20:53:14.395Z,73.40
2019-01-18T20:56:16.354Z,73.73
2019-01-18T20:59:20.307Z,73.50
2019-01-18T21:02:40.202Z,73.72
2019-01-18T21:05:31.601Z,73.75
2019-01-18T21:08:21.105Z,74.02
2019-01-18T21:11:28.968Z,74.01
2019-01-18T21:14:37.603Z,73.77
2019-01-18T21:17:48.649Z,74.02
2019-01-18T21:20:51.998Z,75.73
2019-01-18T21:23:47.931Z,75.08
2019-01-18T21:26:35.556Z,75.41
2019-01-18T21:29:52.677Z,77.50
2019-01-18T21:33:01.516Z,76.54
2019-01-18T21:35:59.974Z,74.78
2019-01-18T21:38:58.922Z,74.58
2019-01-18T21:41:52.711Z,74.78
2019-01-18T21:45:03.677Z,74.81
2019-01-18T21:48:23.567Z,74.69
2019-01-18T21:51:19.399Z,74.79
2019-01-18T21:53:59.312Z,75.00
2019-01-18T21:57:05.523Z,76.16
2019-01-18T22:00:19.310Z,75.09
2019-01-18T22:03:08.759Z,75.20
2019-01-18T22:05:55.979Z,78.38
2019-01-18T22:09:16.034Z,79.27
2019-01-18T22:12:10.764Z,79.44
2019-01-18T22:15:33.672Z,79.63
2019-01-18T22:18:31.982Z,80.09
2019-01-18T22:21:44.528Z,80.59
2019-01-18T22:24:44.478Z,80.49
2019-01-18T22:27:55.497Z,80.39
2019-01-18T22:31:01.159Z,80.43
2019-01-18T22:33:39.906Z,80.25
2019-01-18T22:37:12.146Z,80.54
2019-01-18T22:40:06.101Z,81.17
2019-01-18T22:43:16.180Z,80.83
2019-01-18T22:46:06.107Z,80.96
2019-01-18T22:49:21.683Z,81.21
2019-01-18T22:52:05.315Z,81.29
2019-01-18T22:55:11.621Z,81.41
2019-01-18T22:58:21.594Z,81.26
2019-01-18T23:01:40.444Z,81.02
2019-01-18T23:04:55.249Z,81.20
2019-01-18T23:08:07.044Z,81.37
2019-01-18T23:11:02.669Z,81.64
2019-01-18T23:14:13.729Z,81.60
2019-01-18T23:17:15.100Z,81.39
2019-01-18T23:20:07.284Z,81.61
2019-01-18T23:23:00.524Z,81.55
2019-01-18T23:26:06.355Z,81.71
2019-01-18T23:28:57.786Z,81.96
2019-01-18T23:32:12.873Z,82.24
2019-01-18T23:35:24.070Z,84.41
2019-01-18T23:38:27.294Z,83.98
2019-01-18T23:41:27.769Z,84.24
2019-01-18T23:44:41.647Z,81.64
2019-01-18T23:47:39.278Z,81.00
2019-01-18T23:50:50.548Z,81.37
2019-01-18T23:53:44.374Z,79.28
2019-01-18T23:56:44.152Z,79.91
2019-01-18T23:59:40.825Z,80.77
